createdAt,value
2024-01-01T00:03:59.975Z,985.05
2024-01-01T00:09:44.051Z,985.01
2024-01-01T00:15:27.811Z,985.01
2024-01-01T00:21:11.979Z,984.86
2024-01-01T00:26:55.821Z,984.93
2024-01-01T00:32:40.175Z,984.83
2024-01-01T00:38:24.365Z,985
2024-01-01T00:44:08.294Z,985.13
2024-01-01T00:49:52.536Z,985.01
2024-01-01T00:55:36.539Z,984.98
2024-01-01T01:01:20.839Z,985.14
2024-01-01T01:07:04.825Z,985.14
2024-01-01T01:12:49.348Z,985.23
2024-01-01T01:18:33.449Z,985.21
2024-01-01T01:24:17.619Z,985.46
2024-01-01T01:30:01.639Z,985.5
2024-01-01T01:35:45.819Z,985.49
2024-01-01T01:41:29.675Z,985.41
2024-01-01T01:47:13.672Z,985.58
2024-01-01T01:52:58.213Z,985.61
2024-01-01T01:58:42.314Z,985.8
2024-01-01T02:04:26.441Z,985.7
2024-01-01T02:10:11.109Z,985.53
2024-01-01T02:15:55.218Z,985.59
2024-01-01T02:21:40.189Z,985.62
2024-01-01T02:27:24.847Z,985.66
2024-01-01T02:33:12.405Z,985.94
2024-01-01T02:38:57.045Z,985.97
2024-01-01T02:44:40.956Z,986.04
2024-01-01T02:50:26.427Z,986.05
2024-01-01T02:56:15.948Z,986.1
2024-01-01T03:02:00.115Z,986.12
2024-01-01T03:07:45.167Z,986.23
2024-01-01T03:13:32.869Z,986.23
2024-01-01T03:19:17.290Z,986.38
2024-01-01T03:25:01.586Z,986.32
2024-01-01T03:30:45.898Z,986.33
2024-01-01T03:36:29.862Z,986.45
2024-01-01T03:42:14.150Z,986.27
2024-01-01T03:47:59.396Z,986.34
2024-01-01T03:53:43.801Z,986.37
2024-01-01T03:59:27.999Z,986.44
2024-01-01T04:05:12.720Z,986.37
2024-01-01T04:10:57.065Z,986.62
2024-01-01T04:16:42.995Z,986.53
2024-01-01T04:22:27.996Z,986.6
2024-01-01T04:28:12.050Z,986.71
2024-01-01T04:33:56.133Z,986.86
2024-01-01T04:39:40.274Z,986.83
2024-01-01T04:45:24.184Z,986.99
2024-01-01T04:51:08.440Z,986.89
2024-01-01T04:56:52.485Z,986.97
2024-01-01T05:02:36.485Z,986.92
2024-01-01T05:08:20.687Z,986.89
2024-01-01T05:14:05.160Z,986.88
2024-01-01T05:19:49.962Z,987.01
2024-01-01T05:25:34.550Z,987.02
2024-01-01T05:31:20.205Z,987.06
2024-01-01T05:37:04.245Z,987.13
2024-01-01T05:42:48.240Z,987.1
2024-01-01T05:48:40.249Z,987.17
2024-01-01T05:54:26.640Z,987.23
2024-01-01T06:00:12.342Z,987.34
2024-01-01T06:05:56.922Z,987.39
2024-01-01T06:11:40.837Z,987.6
2024-01-01T06:17:24.960Z,987.63
2024-01-01T06:23:09.564Z,987.6
2024-01-01T06:28:53.950Z,987.76
2024-01-01T06:34:38.283Z,987.79
2024-01-01T06:40:22.473Z,987.85
2024-01-01T06:46:06.657Z,987.94
2024-01-01T06:51:54.670Z,988.08
2024-01-01T06:57:38.469Z,988.09
2024-01-01T07:03:22.478Z,988.25
2024-01-01T07:09:06.768Z,988.19
2024-01-01T07:14:51.194Z,988.35
2024-01-01T07:20:35.304Z,988.42
2024-01-01T07:26:19.260Z,988.52
2024-01-01T07:32:03.770Z,988.81
2024-01-01T07:37:47.879Z,988.94
2024-01-01T07:43:32.225Z,989.1
2024-01-01T07:49:16.239Z,989.2
2024-01-01T07:55:00.474Z,989.22
2024-01-01T08:00:45.368Z,989.34
2024-01-01T08:06:29.420Z,989.33
2024-01-01T08:12:13.438Z,989.34
2024-01-01T08:17:57.583Z,989.45
2024-01-01T08:23:41.911Z,989.47
2024-01-01T08:29:25.971Z,989.56
2024-01-01T08:35:12.098Z,989.66
2024-01-01T08:40:59.947Z,989.75
2024-01-01T08:46:44.099Z,989.75
2024-01-01T08:52:29.152Z,989.86
2024-01-01T08:58:13.018Z,989.88
2024-01-01T09:03:57.225Z,990.11
2024-01-01T09:09:42.235Z,990.06
2024-01-01T09:15:26.195Z,990.11
2024-01-01T09:21:14.642Z,990.21
2024-01-01T09:26:58.627Z,990.17
2024-01-01T09:32:42.502Z,990.27
2024-01-01T09:38:26.749Z,990.42
2024-01-01T09:44:11.303Z,990.44
2024-01-01T09:49:55.306Z,990.44
2024-01-01T09:55:40.123Z,990.63
2024-01-01T10:01:24.483Z,990.74
2024-01-01T10:07:09.471Z,990.87
2024-01-01T10:12:55.257Z,990.81
2024-01-01T10:18:39.991Z,990.86
2024-01-01T10:24:32.280Z,990.9
2024-01-01T10:30:17.677Z,990.89
2024-01-01T10:36:02.897Z,990.99
2024-01-01T10:41:49.051Z,990.92
2024-01-01T10:47:33.403Z,990.97
2024-01-01T10:53:24.259Z,991.01
2024-01-01T10:59:12.433Z,990.93
2024-01-01T11:05:10.507Z,991.01
2024-01-01T11:10:56.522Z,991.08
2024-01-01T11:17:00.743Z,991.09
2024-01-01T11:22:47.041Z,991.09
2024-01-01T11:28:44.852Z,991.05
2024-01-01T11:34:35.502Z,991.08
2024-01-01T11:40:29.862Z,991.23
2024-01-01T11:46:18.630Z,991.35
2024-01-01T11:52:02.418Z,991.39
2024-01-01T11:57:46.470Z,991.31
2024-01-01T12:03:30.834Z,991.33
2024-01-01T12:09:14.869Z,991.26
2024-01-01T12:15:03.513Z,991.28
2024-01-01T12:20:47.363Z,991.39
2024-01-01T12:26:31.281Z,991.26
2024-01-01T12:32:15.328Z,991.26
2024-01-01T12:37:59.494Z,991.16
2024-01-01T12:43:43.648Z,991.17
2024-01-01T12:49:27.618Z,991.23
2024-01-01T12:55:12.293Z,991.16
2024-01-01T13:00:56.374Z,991.11
2024-01-01T13:06:40.285Z,991.18
2024-01-01T13:12:24.384Z,991.27
2024-01-01T13:18:09.262Z,991.25
2024-01-01T13:23:54.485Z,991.38
2024-01-01T13:29:38.713Z,991.32
2024-01-01T13:35:22.575Z,991.47
2024-01-01T13:41:06.589Z,991.56
2024-01-01T13:46:51.056Z,991.49
2024-01-01T13:52:35.088Z,991.57
2024-01-01T13:58:19.011Z,991.53
2024-01-01T14:04:03.455Z,991.55
2024-01-01T14:09:47.443Z,991.45
2024-01-01T14:15:31.508Z,991.48
2024-01-01T14:21:15.642Z,991.5
2024-01-01T14:26:59.449Z,991.41
2024-01-01T14:32:43.463Z,991.41
2024-01-01T14:38:27.986Z,991.47
2024-01-01T14:44:12.156Z,991.52
2024-01-01T14:49:56.322Z,991.61
2024-01-01T14:55:40.315Z,991.71
2024-01-01T15:01:26.813Z,991.86
2024-01-01T15:07:10.951Z,991.9
2024-01-01T15:12:54.682Z,991.88
2024-01-01T15:18:38.832Z,991.94
2024-01-01T15:24:23.317Z,991.98
2024-01-01T15:30:08.258Z,992.11
2024-01-01T15:35:52.161Z,992.06
2024-01-01T15:41:36.001Z,992.15
2024-01-01T15:47:20.168Z,992.15
2024-01-01T15:53:04.933Z,992.27
2024-01-01T15:58:50.092Z,992.12
2024-01-01T16:04:34.164Z,992.13
2024-01-01T16:10:18.074Z,992.09
2024-01-01T16:16:02.064Z,992.11
2024-01-01T16:21:46.123Z,992.12
2024-01-01T16:27:29.945Z,992.03
2024-01-01T16:33:14.076Z,991.95
2024-01-01T16:38:58.221Z,991.95
2024-01-01T16:44:42.046Z,991.96
2024-01-01T16:50:26.111Z,991.97
2024-01-01T16:56:11.024Z,992.05
2024-01-01T17:01:55.085Z,992.09
2024-01-01T17:07:39.024Z,991.97
2024-01-01T17:13:22.987Z,991.96
2024-01-01T17:19:07.454Z,991.89
2024-01-01T17:24:51.439Z,991.86
2024-01-01T17:30:35.666Z,991.86
2024-01-01T17:36:19.676Z,991.79
2024-01-01T17:42:03.683Z,991.64
2024-01-01T17:47:47.698Z,991.57
2024-01-01T17:53:32.574Z,991.45
2024-01-01T17:59:18.065Z,991.4
2024-01-01T18:05:02.425Z,991.35
2024-01-01T18:10:49.761Z,991.28
2024-01-01T18:16:34.079Z,991.27
2024-01-01T18:22:18.295Z,991.18
2024-01-01T18:28:02.190Z,991.13
2024-01-01T18:33:46.656Z,991.19
2024-01-01T18:39:31.462Z,991.18
2024-01-01T18:45:15.469Z,991.11
2024-01-01T18:50:59.530Z,991.01
2024-01-01T18:56:44.035Z,991
2024-01-01T19:02:28.402Z,990.83
2024-01-01T19:08:12.793Z,990.79
2024-01-01T19:13:57.080Z,990.56
2024-01-01T19:19:42.988Z,990.45
2024-01-01T19:25:26.950Z,990.27
2024-01-01T19:31:10.860Z,990.23
2024-01-01T19:36:54.881Z,990.11
2024-01-01T19:42:39.045Z,989.88
2024-01-01T19:48:23.007Z,989.93
2024-01-01T19:54:07.479Z,989.83
2024-01-01T19:59:52.540Z,989.69
2024-01-01T20:05:36.604Z,989.53
2024-01-01T20:11:27.092Z,989.47
2024-01-01T20:17:11.451Z,989.44
2024-01-01T20:22:55.873Z,989.32
2024-01-01T20:28:39.976Z,989.22
2024-01-01T20:34:24.130Z,989.17
2024-01-01T20:40:09.213Z,988.87
2024-01-01T20:45:53.226Z,988.85
2024-01-01T20:51:37.042Z,988.71
2024-01-01T20:57:20.821Z,988.59
2024-01-01T21:03:05.329Z,988.51
2024-01-01T21:08:50.407Z,988.35
2024-01-01T21:14:34.365Z,988.27
2024-01-01T21:20:20.369Z,988.2
2024-01-01T21:26:04.530Z,988.06
2024-01-01T21:31:48.590Z,988.01
2024-01-01T21:37:33.210Z,987.95
2024-01-01T21:43:17.271Z,987.96
2024-01-01T21:49:02.259Z,987.83
2024-01-01T21:54:46.582Z,987.71
2024-01-01T22:00:30.635Z,987.56
2024-01-01T22:06:15.128Z,987.37
2024-01-01T22:11:59.482Z,987.16
2024-01-01T22:17:44.094Z,986.99
2024-01-01T22:23:30.000Z,986.84
2024-01-01T22:29:14.594Z,986.7
2024-01-01T22:34:59.888Z,986.51
2024-01-01T22:40:44.054Z,986.31
2024-01-01T22:46:28.285Z,986.07
2024-01-01T22:52:12.270Z,985.93
2024-01-01T22:57:56.361Z,985.74
2024-01-01T23:03:40.562Z,985.7
2024-01-01T23:09:24.648Z,985.45
2024-01-01T23:15:09.108Z,985.04
2024-01-01T23:20:53.255Z,984.77
2024-01-01T23:26:37.634Z,984.61
2024-01-01T23:32:21.984Z,984.57
2024-01-01T23:38:06.139Z,984.31
2024-01-01T23:43:50.149Z,984.2
2024-01-01T23:49:34.334Z,984.07
2024-01-01T23:55:18.310Z,984.01
